sensor_id;sensor_type;location;lat;lon;timestamp;P1;durP1;ratioP1;P2;durP2;ratioP2
12232;SDS011;6179;51.748;8.728;2024-03-02T00:03:55;7.07;;;3.50;;
12232;SDS011;6179;51.748;8.728;2024-03-02T00:09:56;7.07;;;4.60;;
12232;SDS011;6179;51.748;8.728;2024-03-02T00:15:56;8.40;;;3.60;;
12232;SDS011;6179;51.748;8.728;2024-03-02T00:22:00;9.40;;;3.97;;
12232;SDS011;6179;51.748;8.728;2024-03-02T00:28:01;6.23;;;4.47;;
12232;SDS011;6179;51.748;8.728;2024-03-02T00:34:02;9.07;;;4.63;;
12232;SDS011;6179;51.748;8.728;2024-03-02T00:40:06;10.00;;;4.53;;
12232;SDS011;6179;51.748;8.728;2024-03-02T00:46:08;10.67;;;4.53;;
12232;SDS011;6179;51.748;8.728;2024-03-02T00:52:09;11.83;;;4.03;;
12232;SDS011;6179;51.748;8.728;2024-03-02T00:58:10;9.90;;;4.00;;
12232;SDS011;6179;51.748;8.728;2024-03-02T01:04:11;15.70;;;4.57;;
12232;SDS011;6179;51.748;8.728;2024-03-02T01:10:12;8.03;;;3.70;;
12232;SDS011;6179;51.748;8.728;2024-03-02T01:16:13;6.37;;;3.90;;
12232;SDS011;6179;51.748;8.728;2024-03-02T01:22:15;9.93;;;3.90;;
12232;SDS011;6179;51.748;8.728;2024-03-02T01:28:16;5.53;;;2.87;;
12232;SDS011;6179;51.748;8.728;2024-03-02T01:34:17;10.73;;;5.10;;
12232;SDS011;6179;51.748;8.728;2024-03-02T01:40:17;6.60;;;4.60;;
12232;SDS011;6179;51.748;8.728;2024-03-02T01:46:18;10.90;;;4.87;;
12232;SDS011;6179;51.748;8.728;2024-03-02T01:52:19;3.50;;;3.03;;
12232;SDS011;6179;51.748;8.728;2024-03-02T01:58:20;5.37;;;3.63;;
12232;SDS011;6179;51.748;8.728;2024-03-02T02:04:20;12.93;;;4.27;;
12232;SDS011;6179;51.748;8.728;2024-03-02T02:10:27;7.83;;;3.67;;
12232;SDS011;6179;51.748;8.728;2024-03-02T02:16:27;7.87;;;4.50;;
12232;SDS011;6179;51.748;8.728;2024-03-02T02:22:28;12.83;;;4.50;;
12232;SDS011;6179;51.748;8.728;2024-03-02T02:28:29;7.70;;;3.60;;
12232;SDS011;6179;51.748;8.728;2024-03-02T02:34:29;11.40;;;5.13;;
12232;SDS011;6179;51.748;8.728;2024-03-02T02:40:30;7.50;;;5.23;;
12232;SDS011;6179;51.748;8.728;2024-03-02T02:46:30;9.30;;;4.20;;
12232;SDS011;6179;51.748;8.728;2024-03-02T02:52:32;11.60;;;6.77;;
12232;SDS011;6179;51.748;8.728;2024-03-02T02:58:33;9.80;;;6.27;;
12232;SDS011;6179;51.748;8.728;2024-03-02T03:04:34;12.53;;;6.40;;
12232;SDS011;6179;51.748;8.728;2024-03-02T03:10:34;15.87;;;6.87;;
12232;SDS011;6179;51.748;8.728;2024-03-02T03:16:35;19.20;;;7.43;;
12232;SDS011;6179;51.748;8.728;2024-03-02T03:22:36;16.60;;;7.70;;
12232;SDS011;6179;51.748;8.728;2024-03-02T03:28:37;14.73;;;7.93;;
12232;SDS011;6179;51.748;8.728;2024-03-02T03:34:38;36.30;;;6.87;;
12232;SDS011;6179;51.748;8.728;2024-03-02T03:40:40;16.80;;;8.20;;
12232;SDS011;6179;51.748;8.728;2024-03-02T03:46:41;14.93;;;6.00;;
12232;SDS011;6179;51.748;8.728;2024-03-02T03:52:42;15.77;;;7.90;;
12232;SDS011;6179;51.748;8.728;2024-03-02T03:58:43;13.47;;;6.60;;
12232;SDS011;6179;51.748;8.728;2024-03-02T04:04:44;14.57;;;7.77;;
12232;SDS011;6179;51.748;8.728;2024-03-02T04:10:45;16.43;;;7.60;;
12232;SDS011;6179;51.748;8.728;2024-03-02T04:16:45;18.53;;;8.00;;
12232;SDS011;6179;51.748;8.728;2024-03-02T04:22:46;16.57;;;9.30;;
12232;SDS011;6179;51.748;8.728;2024-03-02T04:28:46;12.23;;;5.37;;
12232;SDS011;6179;51.748;8.728;2024-03-02T04:34:47;17.33;;;7.30;;
12232;SDS011;6179;51.748;8.728;2024-03-02T04:40:48;15.77;;;7.60;;
12232;SDS011;6179;51.748;8.728;2024-03-02T04:46:48;15.50;;;7.40;;
12232;SDS011;6179;51.748;8.728;2024-03-02T04:52:49;14.70;;;7.97;;
12232;SDS011;6179;51.748;8.728;2024-03-02T04:58:49;17.97;;;8.57;;
12232;SDS011;6179;51.748;8.728;2024-03-02T05:04:50;14.67;;;7.07;;
12232;SDS011;6179;51.748;8.728;2024-03-02T05:10:51;14.70;;;6.70;;
12232;SDS011;6179;51.748;8.728;2024-03-02T05:16:52;19.33;;;9.10;;
12232;SDS011;6179;51.748;8.728;2024-03-02T05:22:52;16.47;;;7.63;;
12232;SDS011;6179;51.748;8.728;2024-03-02T05:28:53;16.30;;;8.03;;
12232;SDS011;6179;51.748;8.728;2024-03-02T05:34:53;18.73;;;7.83;;
12232;SDS011;6179;51.748;8.728;2024-03-02T05:40:55;12.97;;;7.13;;
12232;SDS011;6179;51.748;8.728;2024-03-02T05:46:55;12.00;;;6.80;;
12232;SDS011;6179;51.748;8.728;2024-03-02T05:52:56;19.37;;;7.03;;
12232;SDS011;6179;51.748;8.728;2024-03-02T05:58:57;16.20;;;7.43;;
12232;SDS011;6179;51.748;8.728;2024-03-02T06:05:07;19.60;;;9.03;;
12232;SDS011;6179;51.748;8.728;2024-03-02T06:11:12;25.93;;;8.53;;
12232;SDS011;6179;51.748;8.728;2024-03-02T06:17:12;18.50;;;8.97;;
12232;SDS011;6179;51.748;8.728;2024-03-02T06:23:13;19.43;;;8.90;;
12232;SDS011;6179;51.748;8.728;2024-03-02T06:29:13;18.93;;;8.77;;
12232;SDS011;6179;51.748;8.728;2024-03-02T06:35:14;20.20;;;8.40;;
12232;SDS011;6179;51.748;8.728;2024-03-02T06:41:15;18.07;;;6.63;;
12232;SDS011;6179;51.748;8.728;2024-03-02T06:47:15;22.00;;;8.70;;
12232;SDS011;6179;51.748;8.728;2024-03-02T06:53:18;17.87;;;8.87;;
12232;SDS011;6179;51.748;8.728;2024-03-02T06:59:19;22.90;;;8.90;;
12232;SDS011;6179;51.748;8.728;2024-03-02T07:05:20;27.70;;;8.37;;
12232;SDS011;6179;51.748;8.728;2024-03-02T07:11:21;19.80;;;10.00;;
12232;SDS011;6179;51.748;8.728;2024-03-02T07:17:21;22.60;;;8.97;;
12232;SDS011;6179;51.748;8.728;2024-03-02T07:23:22;22.03;;;8.83;;
12232;SDS011;6179;51.748;8.728;2024-03-02T07:29:27;17.00;;;9.20;;
12232;SDS011;6179;51.748;8.728;2024-03-02T07:35:27;17.47;;;8.37;;
12232;SDS011;6179;51.748;8.728;2024-03-02T07:41:28;18.90;;;7.67;;
12232;SDS011;6179;51.748;8.728;2024-03-02T07:47:29;19.87;;;8.37;;
12232;SDS011;6179;51.748;8.728;2024-03-02T07:53:29;17.10;;;9.13;;
12232;SDS011;6179;51.748;8.728;2024-03-02T07:59:30;19.67;;;10.30;;
12232;SDS011;6179;51.748;8.728;2024-03-02T08:05:31;21.80;;;8.60;;
12232;SDS011;6179;51.748;8.728;2024-03-02T08:11:31;21.00;;;10.00;;
12232;SDS011;6179;51.748;8.728;2024-03-02T08:17:32;19.10;;;8.10;;
12232;SDS011;6179;51.748;8.728;2024-03-02T08:23:33;18.03;;;8.57;;
12232;SDS011;6179;51.748;8.728;2024-03-02T08:29:34;18.47;;;10.17;;
12232;SDS011;6179;51.748;8.728;2024-03-02T08:35:35;31.23;;;10.70;;
12232;SDS011;6179;51.748;8.728;2024-03-02T08:41:36;19.60;;;8.37;;
12232;SDS011;6179;51.748;8.728;2024-03-02T08:47:36;15.83;;;7.03;;
12232;SDS011;6179;51.748;8.728;2024-03-02T08:53:37;13.33;;;7.10;;
12232;SDS011;6179;51.748;8.728;2024-03-02T08:59:38;16.80;;;8.03;;
12232;SDS011;6179;51.748;8.728;2024-03-02T09:05:39;10.50;;;6.80;;
12232;SDS011;6179;51.748;8.728;2024-03-02T09:11:40;15.27;;;7.77;;
12232;SDS011;6179;51.748;8.728;2024-03-02T09:17:40;14.03;;;7.23;;
12232;SDS011;6179;51.748;8.728;2024-03-02T09:23:41;15.57;;;5.80;;
12232;SDS011;6179;51.748;8.728;2024-03-02T09:29:44;16.33;;;6.60;;
12232;SDS011;6179;51.748;8.728;2024-03-02T09:35:45;10.50;;;5.60;;
12232;SDS011;6179;51.748;8.728;2024-03-02T09:41:45;9.53;;;5.10;;
12232;SDS011;6179;51.748;8.728;2024-03-02T09:47:47;12.33;;;5.87;;
12232;SDS011;6179;51.748;8.728;2024-03-02T09:53:48;8.00;;;4.57;;
12232;SDS011;6179;51.748;8.728;2024-03-02T09:59:50;9.80;;;5.53;;
12232;SDS011;6179;51.748;8.728;2024-03-02T10:05:50;9.63;;;4.20;;
12232;SDS011;6179;51.748;8.728;2024-03-02T10:11:51;12.33;;;5.20;;
12232;SDS011;6179;51.748;8.728;2024-03-02T10:17:52;12.77;;;4.90;;
12232;SDS011;6179;51.748;8.728;2024-03-02T10:23:52;9.30;;;4.57;;
12232;SDS011;6179;51.748;8.728;2024-03-02T10:29:54;10.87;;;5.37;;
12232;SDS011;6179;51.748;8.728;2024-03-02T10:35:54;10.63;;;4.93;;
12232;SDS011;6179;51.748;8.728;2024-03-02T10:41:55;6.60;;;3.73;;
12232;SDS011;6179;51.748;8.728;2024-03-02T10:47:57;10.10;;;4.67;;
12232;SDS011;6179;51.748;8.728;2024-03-02T10:53:58;14.10;;;4.73;;
12232;SDS011;6179;51.748;8.728;2024-03-02T11:00:02;5.90;;;3.40;;
12232;SDS011;6179;51.748;8.728;2024-03-02T11:06:04;3.60;;;2.60;;
12232;SDS011;6179;51.748;8.728;2024-03-02T11:12:27;10.13;;;3.13;;
12232;SDS011;6179;51.748;8.728;2024-03-02T11:18:29;5.93;;;3.00;;
12232;SDS011;6179;51.748;8.728;2024-03-02T11:24:32;6.17;;;2.47;;
12232;SDS011;6179;51.748;8.728;2024-03-02T11:36:33;7.10;;;2.87;;
12232;SDS011;6179;51.748;8.728;2024-03-02T11:42:35;7.47;;;3.63;;
12232;SDS011;6179;51.748;8.728;2024-03-02T11:48:36;5.83;;;2.27;;
12232;SDS011;6179;51.748;8.728;2024-03-02T11:54:40;7.40;;;2.13;;
12232;SDS011;6179;51.748;8.728;2024-03-02T12:00:51;2.80;;;2.03;;
12232;SDS011;6179;51.748;8.728;2024-03-02T12:06:55;4.23;;;2.53;;
12232;SDS011;6179;51.748;8.728;2024-03-02T12:13:00;4.47;;;1.33;;
12232;SDS011;6179;51.748;8.728;2024-03-02T12:19:07;4.47;;;1.50;;
12232;SDS011;6179;51.748;8.728;2024-03-02T12:25:08;4.63;;;1.10;;
12232;SDS011;6179;51.748;8.728;2024-03-02T12:31:08;3.40;;;2.47;;
12232;SDS011;6179;51.748;8.728;2024-03-02T12:37:11;2.60;;;1.43;;
12232;SDS011;6179;51.748;8.728;2024-03-02T12:43:13;4.43;;;1.57;;
12232;SDS011;6179;51.748;8.728;2024-03-02T12:49:14;4.67;;;2.00;;
12232;SDS011;6179;51.748;8.728;2024-03-02T12:55:16;2.33;;;1.20;;
12232;SDS011;6179;51.748;8.728;2024-03-02T13:01:17;1.33;;;1.00;;
12232;SDS011;6179;51.748;8.728;2024-03-02T13:07:19;6.10;;;1.37;;
12232;SDS011;6179;51.748;8.728;2024-03-02T13:13:21;5.00;;;2.17;;
12232;SDS011;6179;51.748;8.728;2024-03-02T13:19:23;2.30;;;1.17;;
12232;SDS011;6179;51.748;8.728;2024-03-02T13:32:21;1.83;;;0.80;;
12232;SDS011;6179;51.748;8.728;2024-03-02T13:38:23;4.03;;;1.10;;
12232;SDS011;6179;51.748;8.728;2024-03-02T13:44:24;1.10;;;0.73;;
12232;SDS011;6179;51.748;8.728;2024-03-02T13:50:25;1.57;;;1.00;;
12232;SDS011;6179;51.748;8.728;2024-03-02T13:56:25;1.43;;;0.70;;
12232;SDS011;6179;51.748;8.728;2024-03-02T14:02:26;1.37;;;0.60;;
12232;SDS011;6179;51.748;8.728;2024-03-02T14:08:27;1.07;;;0.80;;
12232;SDS011;6179;51.748;8.728;2024-03-02T14:14:27;9.53;;;0.63;;
12232;SDS011;6179;51.748;8.728;2024-03-02T14:20:28;1.40;;;0.50;;
12232;SDS011;6179;51.748;8.728;2024-03-02T14:26:29;1.03;;;0.60;;
12232;SDS011;6179;51.748;8.728;2024-03-02T14:32:30;0.83;;;0.70;;
12232;SDS011;6179;51.748;8.728;2024-03-02T14:38:30;2.47;;;1.83;;
12232;SDS011;6179;51.748;8.728;2024-03-02T14:44:31;0.97;;;0.60;;
12232;SDS011;6179;51.748;8.728;2024-03-02T14:50:32;1.53;;;0.80;;
12232;SDS011;6179;51.748;8.728;2024-03-02T14:56:33;1.23;;;0.57;;
12232;SDS011;6179;51.748;8.728;2024-03-02T15:02:34;0.80;;;0.70;;
12232;SDS011;6179;51.748;8.728;2024-03-02T15:08:34;1.47;;;0.80;;
12232;SDS011;6179;51.748;8.728;2024-03-02T15:14:36;1.33;;;0.60;;
12232;SDS011;6179;51.748;8.728;2024-03-02T15:20:38;0.90;;;0.80;;
12232;SDS011;6179;51.748;8.728;2024-03-02T15:26:39;0.70;;;0.60;;
12232;SDS011;6179;51.748;8.728;2024-03-02T15:32:39;0.73;;;0.70;;
12232;SDS011;6179;51.748;8.728;2024-03-02T15:38:40;2.10;;;0.60;;
12232;SDS011;6179;51.748;8.728;2024-03-02T15:44:41;0.80;;;0.70;;
12232;SDS011;6179;51.748;8.728;2024-03-02T15:50:42;0.70;;;0.50;;
12232;SDS011;6179;51.748;8.728;2024-03-02T15:56:43;1.20;;;0.60;;
12232;SDS011;6179;51.748;8.728;2024-03-02T16:02:44;1.83;;;0.70;;
12232;SDS011;6179;51.748;8.728;2024-03-02T16:08:44;1.63;;;1.20;;
12232;SDS011;6179;51.748;8.728;2024-03-02T16:14:45;2.57;;;1.00;;
12232;SDS011;6179;51.748;8.728;2024-03-02T16:20:46;1.10;;;1.00;;
12232;SDS011;6179;51.748;8.728;2024-03-02T16:26:46;2.40;;;1.23;;
12232;SDS011;6179;51.748;8.728;2024-03-02T16:32:47;1.67;;;0.63;;
12232;SDS011;6179;51.748;8.728;2024-03-02T16:38:48;1.13;;;1.03;;
12232;SDS011;6179;51.748;8.728;2024-03-02T16:44:48;13.30;;;1.00;;
12232;SDS011;6179;51.748;8.728;2024-03-02T16:50:51;0.83;;;0.73;;
12232;SDS011;6179;51.748;8.728;2024-03-02T16:56:52;2.83;;;0.80;;
12232;SDS011;6179;51.748;8.728;2024-03-02T17:02:53;3.00;;;0.67;;
12232;SDS011;6179;51.748;8.728;2024-03-02T17:08:53;3.60;;;1.37;;
12232;SDS011;6179;51.748;8.728;2024-03-02T17:14:54;2.60;;;1.40;;
12232;SDS011;6179;51.748;8.728;2024-03-02T17:20:55;5.07;;;1.20;;
12232;SDS011;6179;51.748;8.728;2024-03-02T17:26:55;1.67;;;1.27;;
12232;SDS011;6179;51.748;8.728;2024-03-02T17:32:58;1.60;;;0.70;;
12232;SDS011;6179;51.748;8.728;2024-03-02T17:38:58;1.50;;;0.90;;
12232;SDS011;6179;51.748;8.728;2024-03-02T17:44:59;5.10;;;0.93;;
12232;SDS011;6179;51.748;8.728;2024-03-02T17:51:00;4.30;;;0.80;;
12232;SDS011;6179;51.748;8.728;2024-03-02T17:57:00;2.30;;;1.20;;
12232;SDS011;6179;51.748;8.728;2024-03-02T18:03:03;5.10;;;1.33;;
12232;SDS011;6179;51.748;8.728;2024-03-02T18:09:04;4.10;;;1.50;;
12232;SDS011;6179;51.748;8.728;2024-03-02T18:15:07;4.67;;;1.07;;
12232;SDS011;6179;51.748;8.728;2024-03-02T18:21:08;4.10;;;2.93;;
12232;SDS011;6179;51.748;8.728;2024-03-02T18:27:09;2.73;;;2.27;;
12232;SDS011;6179;51.748;8.728;2024-03-02T18:33:10;2.93;;;1.47;;
12232;SDS011;6179;51.748;8.728;2024-03-02T18:39:10;3.80;;;1.90;;
12232;SDS011;6179;51.748;8.728;2024-03-02T18:45:11;7.03;;;2.83;;
12232;SDS011;6179;51.748;8.728;2024-03-02T18:51:11;3.40;;;1.97;;
12232;SDS011;6179;51.748;8.728;2024-03-02T18:57:12;4.73;;;2.63;;
12232;SDS011;6179;51.748;8.728;2024-03-02T19:03:13;7.90;;;2.63;;
12232;SDS011;6179;51.748;8.728;2024-03-02T19:09:13;7.13;;;2.27;;
12232;SDS011;6179;51.748;8.728;2024-03-02T19:15:15;3.13;;;1.60;;
12232;SDS011;6179;51.748;8.728;2024-03-02T19:21:16;2.10;;;1.90;;
12232;SDS011;6179;51.748;8.728;2024-03-02T19:27:17;5.60;;;1.80;;
12232;SDS011;6179;51.748;8.728;2024-03-02T19:33:17;3.47;;;1.83;;
12232;SDS011;6179;51.748;8.728;2024-03-02T19:39:18;3.00;;;1.20;;
12232;SDS011;6179;51.748;8.728;2024-03-02T19:45:26;1.90;;;1.47;;
12232;SDS011;6179;51.748;8.728;2024-03-02T19:51:26;1.90;;;1.53;;
12232;SDS011;6179;51.748;8.728;2024-03-02T19:57:27;2.10;;;1.20;;
12232;SDS011;6179;51.748;8.728;2024-03-02T20:03:29;2.50;;;1.20;;
12232;SDS011;6179;51.748;8.728;2024-03-02T20:09:29;8.73;;;2.40;;
12232;SDS011;6179;51.748;8.728;2024-03-02T20:15:30;8.50;;;3.80;;
12232;SDS011;6179;51.748;8.728;2024-03-02T20:21:31;5.30;;;2.83;;
12232;SDS011;6179;51.748;8.728;2024-03-02T20:27:32;19.77;;;3.47;;
12232;SDS011;6179;51.748;8.728;2024-03-02T20:33:33;8.07;;;3.30;;
12232;SDS011;6179;51.748;8.728;2024-03-02T20:39:33;8.10;;;3.50;;
12232;SDS011;6179;51.748;8.728;2024-03-02T20:45:34;9.33;;;2.83;;
12232;SDS011;6179;51.748;8.728;2024-03-02T20:51:35;6.60;;;3.50;;
12232;SDS011;6179;51.748;8.728;2024-03-02T20:57:38;3.80;;;2.90;;
12232;SDS011;6179;51.748;8.728;2024-03-02T21:03:39;7.50;;;4.23;;
12232;SDS011;6179;51.748;8.728;2024-03-02T21:09:42;12.13;;;4.43;;
12232;SDS011;6179;51.748;8.728;2024-03-02T21:15:42;10.50;;;4.40;;
12232;SDS011;6179;51.748;8.728;2024-03-02T21:21:43;12.07;;;5.13;;
12232;SDS011;6179;51.748;8.728;2024-03-02T21:27:44;9.00;;;5.00;;
12232;SDS011;6179;51.748;8.728;2024-03-02T21:33:44;4.93;;;2.90;;
12232;SDS011;6179;51.748;8.728;2024-03-02T21:39:45;6.90;;;4.03;;
12232;SDS011;6179;51.748;8.728;2024-03-02T21:45:46;5.67;;;4.40;;
12232;SDS011;6179;51.748;8.728;2024-03-02T21:51:46;6.23;;;4.60;;
12232;SDS011;6179;51.748;8.728;2024-03-02T21:57:47;10.10;;;4.40;;
12232;SDS011;6179;51.748;8.728;2024-03-02T22:03:48;6.03;;;3.30;;
12232;SDS011;6179;51.748;8.728;2024-03-02T22:09:48;5.80;;;4.30;;
12232;SDS011;6179;51.748;8.728;2024-03-02T22:15:49;5.83;;;3.67;;
12232;SDS011;6179;51.748;8.728;2024-03-02T22:21:50;6.70;;;3.90;;
12232;SDS011;6179;51.748;8.728;2024-03-02T22:27:50;9.47;;;4.73;;
12232;SDS011;6179;51.748;8.728;2024-03-02T22:33:55;10.17;;;4.37;;
12232;SDS011;6179;51.748;8.728;2024-03-02T22:39:55;6.30;;;3.57;;
12232;SDS011;6179;51.748;8.728;2024-03-02T22:45:56;7.13;;;3.30;;
12232;SDS011;6179;51.748;8.728;2024-03-02T22:51:58;7.87;;;4.40;;
12232;SDS011;6179;51.748;8.728;2024-03-02T22:57:58;6.13;;;3.90;;
12232;SDS011;6179;51.748;8.728;2024-03-02T23:03:59;7.33;;;4.40;;
12232;SDS011;6179;51.748;8.728;2024-03-02T23:10:00;9.10;;;4.43;;
12232;SDS011;6179;51.748;8.728;2024-03-02T23:16:00;10.00;;;4.30;;
12232;SDS011;6179;51.748;8.728;2024-03-02T23:22:01;7.63;;;3.90;;
12232;SDS011;6179;51.748;8.728;2024-03-02T23:28:01;8.90;;;4.67;;
12232;SDS011;6179;51.748;8.728;2024-03-02T23:34:02;7.80;;;3.73;;
12232;SDS011;6179;51.748;8.728;2024-03-02T23:40:04;7.30;;;3.63;;
12232;SDS011;6179;51.748;8.728;2024-03-02T23:46:05;7.13;;;3.73;;
12232;SDS011;6179;51.748;8.728;2024-03-02T23:52:07;7.50;;;4.23;;
12232;SDS011;6179;51.748;8.728;2024-03-02T23:58:08;5.00;;;3.17;;
